Time;durP1;ratioP1;P1;durP2;ratioP2;P2;SDS_P1;SDS_P2;PMS_P1;PMS_P2;Temp;Humidity;BMP_temperature;BMP_pressure;BME280_temperature;BME280_humidity;BME280_pressure;Samples;Min_cycle;Max_cycle;Signal;HPM_P1;HPM_P2
2021/11/08 00:02:03;;;;;;;13.15;8.82;;;;;;;-144.43;100.00;64487.81;5071574;28;20365;-64
2021/11/08 00:04:33;;;;;;;13.38;9.38;;;;;;;-144.43;100.00;64487.81;5071995;28;20035;-65
2021/11/08 00:07:03;;;;;;;13.77;8.85;;;;;;;-144.43;100.00;64487.81;5072832;28;20028;-65
2021/11/08 00:09:31;;;;;;;12.32;9.05;;;;;;;-144.43;100.00;64487.81;5088774;28;20384;-65
2021/11/08 00:12:00;;;;;;;13.23;9.25;;;;;;;-144.43;100.00;64487.81;5088181;28;20032;-66
2021/11/08 00:14:26;;;;;;;13.63;8.18;;;;;;;-144.43;100.00;64487.81;5072571;28;20044;-66
2021/11/08 00:17:24;;;;;;;12.77;9.25;;;;;;;-144.43;100.00;64487.81;5088274;28;20117;-65
2021/11/08 00:19:59;;;;;;;14.45;9.95;;;;;;;-144.43;100.00;64487.81;5072848;28;20025;-66
2021/11/08 00:22:26;;;;;;;12.75;9.35;;;;;;;-144.43;100.00;64487.81;5087007;28;20479;-66
2021/11/08 00:24:52;;;;;;;12.73;8.98;;;;;;;-144.43;100.00;64487.81;5088279;28;20054;-66
2021/11/08 00:27:18;;;;;;;13.05;9.20;;;;;;;-144.43;100.00;64487.81;5072719;28;20028;-65
2021/11/08 00:29:47;;;;;;;13.52;9.07;;;;;;;-144.43;100.00;64487.81;5088244;28;20032;-66
2021/11/08 00:32:13;;;;;;;14.30;9.55;;;;;;;-144.43;100.00;64487.81;5088463;28;20027;-66
2021/11/08 00:34:43;;;;;;;12.85;8.63;;;;;;;-144.43;100.00;64487.81;5070755;28;20025;-66
2021/11/08 00:37:12;;;;;;;13.45;8.55;;;;;;;-144.43;100.00;64487.81;5088154;28;20025;-66
2021/11/08 00:39:40;;;;;;;13.63;8.73;;;;;;;-144.43;100.00;64487.81;5072518;28;20050;-66
2021/11/08 00:42:06;;;;;;;13.20;8.77;;;;;;;-144.43;100.00;64487.81;5071158;28;20021;-66
2021/11/08 00:44:35;;;;;;;11.93;8.30;;;;;;;-144.43;100.00;64487.81;5071349;28;20024;-66
2021/11/08 00:47:08;;;;;;;12.15;8.50;;;;;;;-144.43;100.00;64487.81;5088029;28;20047;-66
2021/11/08 00:49:36;;;;;;;12.13;8.35;;;;;;;-144.43;100.00;64487.81;5072291;28;20042;-66
2021/11/08 00:52:09;;;;;;;10.52;7.70;;;;;;;-144.43;100.00;64487.81;5087924;28;20041;-66
2021/11/08 00:54:36;;;;;;;13.95;8.52;;;;;;;-144.43;100.00;64487.81;5069737;28;20036;-66
2021/11/08 00:57:08;;;;;;;11.25;7.93;;;;;;;-144.43;100.00;64487.81;5046677;28;20029;-65
2021/11/08 00:59:39;;;;;;;12.23;8.80;;;;;;;-144.43;100.00;64487.81;5067716;28;20060;-65
2021/11/08 01:02:05;;;;;;;11.25;8.25;;;;;;;-144.43;100.00;64487.81;5087690;28;20429;-64
2021/11/08 01:04:31;;;;;;;12.27;8.55;;;;;;;-144.43;100.00;64487.81;5087808;28;20013;-65
2021/11/08 01:07:02;;;;;;;18.38;9.07;;;;;;;-144.43;100.00;64487.81;5087846;28;20074;-64
2021/11/08 01:09:37;;;;;;;12.05;8.35;;;;;;;-144.43;100.00;64487.81;5087150;28;20024;-64
2021/11/08 01:12:04;;;;;;;11.38;9.00;;;;;;;-144.43;100.00;64487.81;5087711;28;20048;-64
2021/11/08 01:14:29;;;;;;;14.45;9.07;;;;;;;-144.43;100.00;64487.81;5087334;28;20041;-64
2021/11/08 01:16:56;;;;;;;11.55;8.25;;;;;;;-144.43;100.00;64487.81;5072163;28;20097;-67
2021/11/08 01:19:24;;;;;;;10.63;8.25;;;;;;;-144.43;100.00;64487.81;5072131;28;20487;-67
2021/11/08 01:21:50;;;;;;;13.57;8.18;;;;;;;-144.43;100.00;64487.81;5087808;28;20029;-66
2021/11/08 01:24:15;;;;;;;11.55;8.25;;;;;;;-144.43;100.00;64487.81;5070749;28;20394;-66
2021/11/08 01:26:46;;;;;;;10.52;8.15;;;;;;;-144.43;100.00;64487.81;5087660;28;20103;-66
2021/11/08 01:29:12;;;;;;;10.65;7.95;;;;;;;-144.43;100.00;64487.81;5087147;28;20093;-66
2021/11/08 01:31:40;;;;;;;10.70;7.68;;;;;;;-144.43;100.00;64487.81;5072062;28;20483;-67
2021/11/08 01:34:05;;;;;;;10.93;8.07;;;;;;;-144.43;100.00;64487.81;5071793;28;20095;-66
2021/11/08 01:36:50;;;;;;;10.15;7.97;;;;;;;-144.43;100.00;64487.81;5070700;28;20025;-67
2021/11/08 01:39:19;;;;;;;10.55;7.78;;;;;;;-144.43;100.00;64487.81;5071861;28;20387;-66
2021/11/08 01:41:46;;;;;;;10.43;8.07;;;;;;;-144.43;100.00;64487.81;5087186;28;20494;-66
2021/11/08 01:44:15;;;;;;;10.48;7.80;;;;;;;-144.43;100.00;64487.81;5087604;28;20027;-66
2021/11/08 01:46:44;;;;;;;11.05;8.05;;;;;;;-144.43;100.00;64487.81;5088874;28;20024;-65
2021/11/08 01:49:09;;;;;;;10.13;7.40;;;;;;;-144.43;100.00;64487.81;5074345;28;20059;-65
2021/11/08 01:51:42;;;;;;;9.73;8.05;;;;;;;-144.43;100.00;64487.81;5091407;28;20487;-64
2021/11/08 01:54:10;;;;;;;10.10;7.80;;;;;;;-144.43;100.00;64487.81;5073999;28;20067;-65
2021/11/08 01:56:35;;;;;;;10.98;7.82;;;;;;;-144.43;100.00;64487.81;5091225;28;20056;-65
2021/11/08 01:59:03;;;;;;;10.57;7.60;;;;;;;-144.43;100.00;64487.81;5091164;28;20063;-65
2021/11/08 02:01:35;;;;;;;9.73;7.47;;;;;;;-144.43;100.00;64487.81;5074012;28;20074;-65
2021/11/08 02:04:00;;;;;;;9.23;6.70;;;;;;;-144.43;100.00;64487.81;5075474;28;20021;-66
2021/11/08 02:06:26;;;;;;;10.68;7.97;;;;;;;-144.43;100.00;64487.81;5073883;28;20162;-66
2021/11/08 02:08:55;;;;;;;10.77;8.00;;;;;;;-144.43;100.00;64487.81;5091001;28;20028;-66
2021/11/08 02:11:20;;;;;;;9.50;7.28;;;;;;;-144.43;100.00;64487.81;5073944;28;20027;-66
2021/11/08 02:13:50;;;;;;;9.90;7.35;;;;;;;-144.43;100.00;64487.81;5074085;28;20049;-66
2021/11/08 02:16:19;;;;;;;9.85;7.75;;;;;;;-144.43;100.00;64487.81;5054912;28;20036;-65
2021/11/08 02:18:44;;;;;;;10.38;7.65;;;;;;;-144.43;100.00;64487.81;5066888;28;20024;-64
2021/11/08 02:21:11;;;;;;;11.57;7.72;;;;;;;-144.43;100.00;64487.81;5075042;28;20035;-65
2021/11/08 02:23:40;;;;;;;11.32;7.72;;;;;;;-144.43;100.00;64487.81;5090436;28;20017;-65
2021/11/08 02:26:09;;;;;;;9.13;7.57;;;;;;;-144.43;100.00;64487.81;5073867;28;20161;-65
2021/11/08 02:28:35;;;;;;;13.25;7.57;;;;;;;-144.43;100.00;64487.81;5090061;28;20147;-66
2021/11/08 02:31:01;;;;;;;11.32;8.05;;;;;;;-144.43;100.00;64487.81;5073923;28;20489;-65
2021/11/08 02:33:27;;;;;;;9.15;7.15;;;;;;;-144.43;100.00;64487.81;5053970;28;20082;-65
2021/11/08 02:35:56;;;;;;;12.30;7.35;;;;;;;-144.43;100.00;64487.81;5060201;28;20029;-64
2021/11/08 02:38:28;;;;;;;8.90;6.95;;;;;;;-144.43;100.00;64487.81;5073615;28;20029;-66
2021/11/08 02:40:55;;;;;;;11.67;8.07;;;;;;;-144.43;100.00;64487.81;5073460;28;20078;-66
2021/11/08 02:43:30;;;;;;;9.68;7.43;;;;;;;-144.43;100.00;64487.81;5056675;28;20032;-66
2021/11/08 02:48:28;;;;;;;11.05;7.85;;;;;;;-144.43;100.00;64487.81;5089835;28;20034;-66
2021/11/08 02:51:06;;;;;;;10.98;8.18;;;;;;;-144.43;100.00;64487.81;5090196;28;20036;-65
2021/11/08 02:53:33;;;;;;;9.93;7.65;;;;;;;-144.43;100.00;64487.81;5088404;28;20036;-65
2021/11/08 02:55:59;;;;;;;11.55;7.93;;;;;;;-144.43;100.00;64487.81;5089954;28;20025;-66
2021/11/08 02:58:27;;;;;;;12.00;8.52;;;;;;;-144.43;100.00;64487.81;5089672;28;20056;-66
2021/11/08 03:00:56;;;;;;;11.20;8.40;;;;;;;-144.43;100.00;64487.81;5074373;28;20025;-66
2021/11/08 03:03:29;;;;;;;12.32;8.40;;;;;;;-144.43;100.00;64487.81;5074325;28;20028;-67
2021/11/08 03:06:01;;;;;;;11.88;8.05;;;;;;;-144.43;100.00;64487.81;5074366;28;20016;-66
2021/11/08 03:08:26;;;;;;;10.52;7.63;;;;;;;-144.43;100.00;64487.81;5089070;28;20028;-66
2021/11/08 03:10:56;;;;;;;12.60;8.68;;;;;;;-144.43;100.00;64487.81;5074073;28;20081;-66
2021/11/08 03:13:26;;;;;;;9.57;7.63;;;;;;;-144.43;100.00;64487.81;5073831;28;20394;-65
2021/11/08 03:18:41;;;;;;;12.07;8.32;;;;;;;-144.43;100.00;64487.81;5074085;28;20036;-66
2021/11/08 03:21:16;;;;;;;10.95;7.90;;;;;;;-144.43;100.00;64487.81;5088865;28;20120;-66
2021/11/08 03:23:49;;;;;;;10.90;8.05;;;;;;;-144.43;100.00;64487.81;5073674;28;20024;-66
2021/11/08 03:28:59;;;;;;;13.38;8.30;;;;;;;-144.43;100.00;64487.81;5087052;28;20039;-65
2021/11/08 03:31:26;;;;;;;13.60;9.38;;;;;;;-144.43;100.00;64487.81;5089457;28;20387;-65
2021/11/08 03:33:56;;;;;;;11.55;8.20;;;;;;;-144.43;100.00;64487.81;5088790;28;20020;-64
2021/11/08 03:36:22;;;;;;;12.32;8.68;;;;;;;-144.43;100.00;64487.81;5072284;28;20027;-64
2021/11/08 03:38:51;;;;;;;12.23;8.93;;;;;;;-144.43;100.00;64487.81;5073572;28;20031;-65
2021/11/08 03:41:19;;;;;;;12.48;8.57;;;;;;;-144.43;100.00;64487.81;5068967;28;20132;-64
2021/11/08 03:43:45;;;;;;;11.77;8.45;;;;;;;-144.43;100.00;64487.81;5087915;28;20024;-65
2021/11/08 03:46:13;;;;;;;11.20;8.13;;;;;;;-144.43;100.00;64487.81;5073554;28;20024;-65
2021/11/08 03:48:39;;;;;;;12.30;8.68;;;;;;;-144.43;100.00;64487.81;5073169;28;20096;-65
2021/11/08 03:51:08;;;;;;;12.10;8.48;;;;;;;-144.43;100.00;64487.81;5073393;28;20108;-65
2021/11/08 03:53:34;;;;;;;11.07;7.78;;;;;;;-144.43;100.00;64487.81;5068677;28;20044;-65
2021/11/08 03:56:04;;;;;;;12.60;8.80;;;;;;;-144.43;100.00;64487.81;5081410;28;20017;-64
2021/11/08 03:58:30;;;;;;;13.05;8.52;;;;;;;-144.43;100.00;64487.81;5072127;28;20154;-65
2021/11/08 04:00:55;;;;;;;11.77;7.97;;;;;;;-144.43;100.00;64487.81;5071763;28;20116;-65
2021/11/08 04:03:21;;;;;;;12.32;8.63;;;;;;;-144.43;100.00;64487.81;5088584;28;20507;-66
2021/11/08 04:05:46;;;;;;;13.05;8.02;;;;;;;-144.43;100.00;64487.81;5071774;28;20024;-63
2021/11/08 04:08:21;;;;;;;13.57;9.38;;;;;;;-144.43;100.00;64487.81;5072985;28;20024;-66
2021/11/08 04:10:51;;;;;;;12.48;8.32;;;;;;;-144.43;100.00;64487.81;5087765;28;20051;-65
2021/11/08 04:13:26;;;;;;;12.05;9.10;;;;;;;-144.43;100.00;64487.81;5047851;28;20119;-65
2021/11/08 04:15:51;;;;;;;11.40;8.13;;;;;;;-144.43;100.00;64487.81;5067222;28;20487;-65
2021/11/08 04:18:22;;;;;;;12.45;8.25;;;;;;;-144.43;100.00;64487.81;5071514;28;20028;-63
2021/11/08 04:20:49;;;;;;;11.45;7.90;;;;;;;-144.43;100.00;64487.81;5058330;28;20070;-65
2021/11/08 04:23:23;;;;;;;13.50;8.73;;;;;;;-144.43;100.00;64487.81;5044763;28;20108;-66
2021/11/08 04:25:53;;;;;;;13.23;8.65;;;;;;;-144.43;100.00;64487.81;5069535;28;20024;-65
2021/11/08 04:28:19;;;;;;;14.25;8.07;;;;;;;-144.43;100.00;64487.81;5072557;28;20378;-64
2021/11/08 04:30:45;;;;;;;8.43;6.53;;;;;;;-144.43;100.00;64487.81;5072696;28;20033;-65
2021/11/08 04:33:19;;;;;;;9.93;7.15;;;;;;;-144.43;100.00;64487.81;5068008;28;20044;-63
2021/11/08 04:36:12;;;;;;;7.65;4.72;;;;;;;-144.43;100.00;64487.81;5071430;28;20028;-64
2021/11/08 04:38:54;;;;;;;5.38;4.32;;;;;;;-144.43;100.00;64487.81;5056557;28;20066;-67
2021/11/08 04:50:13;;;;;;;7.30;4.13;;;;;;;-144.43;100.00;64487.81;5086523;28;20027;-64
2021/11/08 05:30:09;;;;;;;1.90;1.60;;;;;;;-144.43;100.00;64487.81;5094687;28;20066;-63
2021/11/08 05:32:39;;;;;;;4.13;1.75;;;;;;;-144.43;100.00;64487.81;5081657;28;20078;-64
2021/11/08 05:35:06;;;;;;;4.20;1.90;;;;;;;-144.43;100.00;64487.81;5080605;28;20107;-65
2021/11/08 05:37:32;;;;;;;4.10;1.60;;;;;;;-144.43;100.00;64487.81;5081013;28;20021;-64
2021/11/08 05:40:11;;;;;;;4.53;2.53;;;;;;;-144.43;100.00;64487.81;5096224;28;20402;-63
2021/11/08 05:42:43;;;;;;;3.92;1.60;;;;;;;-144.43;100.00;64487.81;5079653;28;20501;-63
2021/11/08 05:45:11;;;;;;;2.53;1.60;;;;;;;-144.43;100.00;64487.81;5075438;28;20021;-63
2021/11/08 05:47:37;;;;;;;3.65;2.05;;;;;;;-144.43;100.00;64487.81;5042634;28;20021;-62
2021/11/08 05:50:03;;;;;;;3.72;1.92;;;;;;;-144.43;100.00;64487.81;5068413;28;20371;-63
2021/11/08 05:52:29;;;;;;;4.32;1.95;;;;;;;-144.43;100.00;64487.81;5096079;28;20040;-62
2021/11/08 05:54:54;;;;;;;2.03;1.52;;;;;;;-144.43;100.00;64487.81;5095939;28;20551;-61
2021/11/08 06:51:51;;;;;;;8.38;5.47;;;;;;;-144.43;100.00;64487.81;5077407;28;20020;-67
2021/11/08 06:54:21;;;;;;;7.63;5.88;;;;;;;-144.43;100.00;64487.81;5075343;28;20036;-59
2021/11/08 06:56:56;;;;;;;13.73;7.45;;;;;;;-144.43;100.00;64487.81;5094136;28;20034;-61
2021/11/08 06:59:25;;;;;;;7.18;5.05;;;;;;;-144.43;100.00;64487.81;5066707;28;20413;-60
2021/11/08 07:01:51;;;;;;;8.15;5.60;;;;;;;-144.43;100.00;64487.81;5093854;28;20021;-61
2021/11/08 07:04:17;;;;;;;8.48;5.40;;;;;;;-144.43;100.00;64487.81;5074923;28;20375;-60
2021/11/08 07:06:43;;;;;;;13.07;5.43;;;;;;;-144.43;100.00;64487.81;5074231;28;20127;-61
2021/11/08 07:09:12;;;;;;;8.27;5.80;;;;;;;-144.43;100.00;64487.81;5078685;28;20027;-59
2021/11/08 07:11:38;;;;;;;11.63;6.47;;;;;;;-144.43;100.00;64487.81;5071263;28;20033;-60
2021/11/08 07:14:08;;;;;;;11.30;6.60;;;;;;;-144.43;100.00;64487.81;5059003;28;20029;-60
2021/11/08 07:16:35;;;;;;;12.70;6.90;;;;;;;-144.43;100.00;64487.81;5055700;28;20178;-64
2021/11/08 07:19:01;;;;;;;10.30;6.32;;;;;;;-144.43;100.00;64487.81;5072175;28;20025;-64
2021/11/08 07:21:28;;;;;;;10.90;6.05;;;;;;;-144.43;100.00;64487.81;5057966;28;20033;-64
2021/11/08 07:23:57;;;;;;;7.55;5.35;;;;;;;-144.43;100.00;64487.81;5058109;28;20383;-63
2021/11/08 07:26:22;;;;;;;11.18;5.60;;;;;;;-144.43;100.00;64487.81;5057196;28;20448;-63
2021/11/08 07:28:48;;;;;;;8.85;5.53;;;;;;;-144.43;100.00;64487.81;5058767;28;20048;-63
2021/11/08 07:31:13;;;;;;;10.73;5.20;;;;;;;-144.43;100.00;64487.81;5058399;28;20060;-64
2021/11/08 07:33:39;;;;;;;9.77;5.07;;;;;;;-144.43;100.00;64487.81;5057700;28;20029;-65
2021/11/08 07:36:05;;;;;;;12.50;4.78;;;;;;;-144.43;100.00;64487.81;5055813;28;20021;-63
2021/11/08 07:38:35;;;;;;;5.82;4.22;;;;;;;-144.43;100.00;64487.81;5074050;28;20051;-64
2021/11/08 07:41:02;;;;;;;5.30;4.03;;;;;;;-144.43;100.00;64487.81;5057647;28;20036;-64
2021/11/08 07:43:28;;;;;;;6.93;4.15;;;;;;;-144.43;100.00;64487.81;5066335;28;20380;-62
2021/11/08 07:45:53;;;;;;;7.43;4.00;;;;;;;-144.43;100.00;64487.81;5061606;28;20028;-63
2021/11/08 07:48:21;;;;;;;6.13;4.07;;;;;;;-144.43;100.00;64487.81;5058018;28;20035;-59
2021/11/08 07:50:46;;;;;;;6.45;4.30;;;;;;;-144.43;100.00;64487.81;5071825;28;20021;-61
2021/11/08 07:53:12;;;;;;;9.43;3.90;;;;;;;-144.43;100.00;64487.81;5093902;28;20078;-61
2021/11/08 07:55:38;;;;;;;5.80;3.95;;;;;;;-144.43;100.00;64487.81;5093395;28;20521;-61
2021/11/08 07:58:05;;;;;;;7.53;3.63;;;;;;;-144.43;100.00;64487.81;5076715;28;20463;-60
2021/11/08 08:00:32;;;;;;;7.93;4.05;;;;;;;-144.43;100.00;64487.81;5077693;28;20029;-60
2021/11/08 08:02:58;;;;;;;6.85;3.15;;;;;;;-144.43;100.00;64487.81;5093540;28;20171;-64
2021/11/08 08:05:24;;;;;;;5.25;3.47;;;;;;;-144.43;100.00;64487.81;5075562;28;20142;-63
2021/11/08 08:07:51;;;;;;;5.97;3.65;;;;;;;-144.43;100.00;64487.81;5075926;28;20028;-63
2021/11/08 08:10:17;;;;;;;4.93;3.47;;;;;;;-144.43;100.00;64487.81;5076353;28;20056;-63
2021/11/08 08:12:42;;;;;;;5.70;3.45;;;;;;;-144.43;100.00;64487.81;5075359;28;20073;-62
2021/11/08 08:15:08;;;;;;;5.60;3.85;;;;;;;-144.43;100.00;64487.81;5076180;28;20041;-63
2021/11/08 08:17:36;;;;;;;7.38;3.33;;;;;;;-144.43;100.00;64487.81;5076385;28;20052;-64
2021/11/08 08:20:03;;;;;;;6.00;3.70;;;;;;;-144.43;100.00;64487.81;5076332;28;20052;-63
2021/11/08 08:22:28;;;;;;;8.05;3.55;;;;;;;-144.43;100.00;64487.81;5075852;28;20043;-63
2021/11/08 08:24:54;;;;;;;6.82;3.58;;;;;;;-144.43;100.00;64487.81;5092262;28;20476;-63
2021/11/08 08:27:19;;;;;;;7.07;3.97;;;;;;;-144.43;100.00;64487.81;5076774;28;20028;-63
2021/11/08 08:29:46;;;;;;;5.72;3.58;;;;;;;-144.43;100.00;64487.81;5076870;28;20042;-61
2021/11/08 08:32:13;;;;;;;4.60;3.55;;;;;;;-144.43;100.00;64487.81;5075858;28;20025;-61
2021/11/08 08:34:39;;;;;;;8.23;3.80;;;;;;;-144.43;100.00;64487.81;5076984;28;20020;-60
2021/11/08 08:37:04;;;;;;;7.05;3.60;;;;;;;-144.43;100.00;64487.81;5076034;28;20493;-60
2021/11/08 08:39:29;;;;;;;4.45;3.38;;;;;;;-144.43;100.00;64487.81;5075718;28;20541;-59
2021/11/08 08:41:55;;;;;;;4.25;2.97;;;;;;;-144.43;100.00;64487.81;5092924;28;20032;-61
2021/11/08 08:44:20;;;;;;;6.05;3.42;;;;;;;-144.43;100.00;64487.81;5076392;28;20020;-61
2021/11/08 08:46:46;;;;;;;4.97;3.45;;;;;;;-144.43;100.00;64487.81;5092623;28;20025;-64
2021/11/08 08:49:14;;;;;;;6.20;3.50;;;;;;;-144.43;100.00;64487.81;5076003;28;20024;-63
2021/11/08 08:51:39;;;;;;;6.32;3.05;;;;;;;-144.43;100.00;64487.81;5076390;28;20028;-63
2021/11/08 08:54:04;;;;;;;6.95;3.65;;;;;;;-144.43;100.00;64487.81;5075242;28;20530;-60
2021/11/08 08:56:30;;;;;;;4.53;3.53;;;;;;;-144.43;100.00;64487.81;5077049;28;20028;-62
2021/11/08 08:58:56;;;;;;;6.00;3.28;;;;;;;-144.43;100.00;64487.81;5077203;28;20067;-64
2021/11/08 09:01:24;;;;;;;6.95;3.50;;;;;;;-144.43;100.00;64487.81;5075897;28;20020;-64
2021/11/08 09:03:51;;;;;;;5.20;2.92;;;;;;;-144.43;100.00;64487.81;5048276;28;20056;-63
2021/11/08 09:06:20;;;;;;;4.32;2.42;;;;;;;-144.43;100.00;64487.81;5055881;28;20065;-63
2021/11/08 09:08:46;;;;;;;6.13;2.97;;;;;;;-144.43;100.00;64487.81;5057044;28;20384;-63
2021/11/08 09:11:12;;;;;;;4.28;2.22;;;;;;;-144.43;100.00;64487.81;5055117;28;20063;-63
2021/11/08 09:13:37;;;;;;;3.92;2.17;;;;;;;-144.43;100.00;64487.81;5055250;28;20037;-62
2021/11/08 09:16:10;;;;;;;5.13;1.73;;;;;;;-144.43;100.00;64487.81;5055835;28;20124;-61
2021/11/08 09:18:36;;;;;;;3.33;2.13;;;;;;;-144.43;100.00;64487.81;5053435;28;20250;-60
2021/11/08 09:21:02;;;;;;;4.65;2.20;;;;;;;-144.43;100.00;64487.81;5050987;28;20028;-58
2021/11/08 09:23:27;;;;;;;4.10;2.33;;;;;;;-144.43;100.00;64487.81;5052046;28;20029;-60
2021/11/08 09:25:53;;;;;;;4.45;2.20;;;;;;;-144.43;100.00;64487.81;5050905;28;20112;-59
2021/11/08 09:28:24;;;;;;;5.50;2.10;;;;;;;-144.43;100.00;64487.81;5050738;28;20110;-59
2021/11/08 09:30:49;;;;;;;3.38;2.08;;;;;;;-144.43;100.00;64487.81;5052095;28;20029;-60
2021/11/08 09:33:15;;;;;;;5.32;2.42;;;;;;;-144.43;100.00;64487.81;5050611;28;20051;-60
2021/11/08 09:35:46;;;;;;;3.45;2.45;;;;;;;-144.43;100.00;64487.81;5086932;28;20044;-61
2021/11/08 09:38:12;;;;;;;4.35;2.53;;;;;;;-144.43;100.00;64487.81;5071909;28;20028;-61
2021/11/08 09:40:40;;;;;;;5.70;2.47;;;;;;;-144.43;100.00;64487.81;5070503;28;20032;-60
2021/11/08 09:43:11;;;;;;;3.40;2.65;;;;;;;-144.43;100.00;64487.81;5070602;28;20029;-62
2021/11/08 09:45:42;;;;;;;5.55;2.72;;;;;;;-144.43;100.00;64487.81;5071763;28;20028;-60
2021/11/08 09:48:10;;;;;;;3.55;2.40;;;;;;;-144.43;100.00;64487.81;5071873;28;20103;-62
2021/11/08 09:50:36;;;;;;;5.97;2.63;;;;;;;-144.43;100.00;64487.81;5087007;28;20093;-61
2021/11/08 09:53:12;;;;;;;4.25;2.58;;;;;;;-144.43;100.00;64487.81;5071670;28;20056;-61
2021/11/08 09:55:38;;;;;;;5.95;2.75;;;;;;;-144.43;100.00;64487.81;5071445;28;20557;-60
2021/11/08 09:58:04;;;;;;;3.80;2.85;;;;;;;-144.43;100.00;64487.81;5070563;28;20056;-62
2021/11/08 10:00:35;;;;;;;4.72;2.60;;;;;;;-144.43;100.00;64487.81;5071652;28;20483;-62
2021/11/08 10:03:03;;;;;;;5.18;3.13;;;;;;;-144.43;100.00;64487.81;5071745;28;20082;-62
2021/11/08 10:05:32;;;;;;;5.13;2.80;;;;;;;-144.43;100.00;64487.81;5086988;28;20437;-61
2021/11/08 10:07:59;;;;;;;6.80;2.80;;;;;;;-144.43;100.00;64487.81;5072479;28;20028;-61
2021/11/08 10:10:26;;;;;;;7.35;3.33;;;;;;;-144.43;100.00;64487.81;5075419;28;20042;-61
2021/11/08 10:13:04;;;;;;;5.70;2.25;;;;;;;-144.43;100.00;64487.81;5073954;28;20115;-59
2021/11/08 10:15:30;;;;;;;8.23;2.92;;;;;;;-144.43;100.00;64487.81;5090678;28;20048;-58
2021/11/08 10:17:55;;;;;;;3.88;2.60;;;;;;;-144.43;100.00;64487.81;5073911;28;20028;-61
2021/11/08 10:20:33;;;;;;;5.97;2.67;;;;;;;-144.43;100.00;64487.81;5090760;28;20024;-61
2021/11/08 10:22:59;;;;;;;6.30;2.45;;;;;;;-144.43;100.00;64487.81;5063745;28;20017;-58
2021/11/08 10:25:27;;;;;;;4.70;2.47;;;;;;;-144.43;100.00;64487.81;5060734;28;20383;-58
2021/11/08 10:27:55;;;;;;;7.45;2.25;;;;;;;-144.43;100.00;64487.81;5057929;28;20122;-58
2021/11/08 10:30:30;;;;;;;7.53;2.40;;;;;;;-144.43;100.00;64487.81;5078267;28;20032;-58
2021/11/08 10:33:22;;;;;;;4.28;2.25;;;;;;;-144.43;100.00;64487.81;5057165;28;20020;-60
2021/11/08 10:35:50;;;;;;;3.45;2.17;;;;;;;-144.43;100.00;64487.81;5062494;28;20486;-59
2021/11/08 10:38:25;;;;;;;6.00;2.35;;;;;;;-144.43;100.00;64487.81;5058666;28;20124;-58
2021/11/08 10:41:05;;;;;;;5.22;2.55;;;;;;;-144.43;100.00;64487.81;5052671;28;20038;-58
2021/11/08 10:43:37;;;;;;;5.22;2.58;;;;;;;-144.43;100.00;64487.81;5066601;28;20035;-59
2021/11/08 10:46:11;;;;;;;5.32;2.75;;;;;;;-144.43;100.00;64487.81;5061127;28;20028;-57
2021/11/08 10:48:47;;;;;;;5.35;2.67;;;;;;;-144.43;100.00;64487.81;5090494;28;20395;-59
2021/11/08 10:51:17;;;;;;;5.78;3.00;;;;;;;-144.43;100.00;64487.81;5073520;28;20024;-58
2021/11/08 10:53:55;;;;;;;6.18;3.10;;;;;;;-144.43;100.00;64487.81;5076131;28;20029;-59
2021/11/08 10:56:25;;;;;;;5.70;3.17;;;;;;;-144.43;100.00;64487.81;5074624;28;20089;-59
2021/11/08 10:58:52;;;;;;;4.25;2.47;;;;;;;-144.43;100.00;64487.81;5070744;28;20025;-60
2021/11/08 11:01:24;;;;;;;6.20;2.40;;;;;;;-144.43;100.00;64487.81;5073300;28;20467;-58
2021/11/08 11:03:52;;;;;;;4.20;2.55;;;;;;;-144.43;100.00;64487.81;5085359;28;20024;-59
2021/11/08 11:06:19;;;;;;;5.30;2.65;;;;;;;-144.43;100.00;64487.81;5059034;28;20021;-59
2021/11/08 11:08:50;;;;;;;4.20;2.55;;;;;;;-144.43;100.00;64487.81;5067372;28;20045;-60
2021/11/08 11:11:19;;;;;;;5.40;2.83;;;;;;;-144.43;100.00;64487.81;5075432;28;20086;-56
2021/11/08 11:13:57;;;;;;;6.30;2.50;;;;;;;-144.43;100.00;64487.81;5086564;28;20027;-59
2021/11/08 11:17:04;;;;;;;7.13;2.90;;;;;;;-144.43;100.00;64487.81;5062618;22;20049;-66
2021/11/08 11:19:32;;;;;;;5.70;2.70;;;;;;;-144.43;100.00;64487.81;4968104;28;20081;-66
2021/11/08 11:22:05;;;;;;;12.07;3.13;;;;;;;-144.43;100.00;64487.81;4976647;28;20037;-66
2021/11/08 11:24:46;;;;;;;9.18;3.42;;;;;;;-144.43;100.00;64487.81;4992629;28;20543;-66
2021/11/08 11:27:32;;;;;;;6.72;2.83;;;;;;;-144.43;100.00;64487.81;4992632;28;20146;-65
2021/11/08 11:30:39;;;;;;;5.97;2.72;;;;;;;-144.43;100.00;64487.81;4992374;28;20046;-66
2021/11/08 11:33:14;;;;;;;5.95;2.95;;;;;;;-144.43;100.00;64487.81;4976517;28;20034;-66
2021/11/08 11:35:48;;;;;;;6.35;3.08;;;;;;;-144.43;100.00;64487.81;4964583;28;20434;-65
2021/11/08 11:38:36;;;;;;;4.72;3.00;;;;;;;-144.43;100.00;64487.81;4991818;28;20045;-65
2021/11/08 11:41:17;;;;;;;4.88;2.90;;;;;;;-144.43;100.00;64487.81;4992143;28;20026;-65
2021/11/08 11:43:42;;;;;;;7.25;3.22;;;;;;;-144.43;100.00;64487.81;4987531;28;20518;-65
2021/11/08 11:46:17;;;;;;;10.10;3.17;;;;;;;-144.43;100.00;64487.81;4993365;28;20034;-64
2021/11/08 11:48:43;;;;;;;10.02;3.33;;;;;;;-144.43;100.00;64487.81;4992028;28;20042;-67
2021/11/08 11:51:18;;;;;;;7.85;2.90;;;;;;;-144.43;100.00;64487.81;5010202;28;20034;-66
2021/11/08 11:53:44;;;;;;;5.88;2.70;;;;;;;-144.43;100.00;64487.81;5013763;28;20044;-66
2021/11/08 11:56:15;;;;;;;5.65;3.28;;;;;;;-144.43;100.00;64487.81;4996284;28;20156;-65
2021/11/08 11:58:46;;;;;;;9.00;3.38;;;;;;;-144.43;100.00;64487.81;5031142;28;20396;-65
2021/11/08 12:01:14;;;;;;;5.80;3.10;;;;;;;-144.43;100.00;64487.81;5015161;28;20392;-65
2021/11/08 12:03:39;;;;;;;5.18;2.83;;;;;;;-144.43;100.00;64487.81;4993175;28;20050;-66
2021/11/08 12:06:06;;;;;;;4.30;2.90;;;;;;;-144.43;100.00;64487.81;5012073;28;20053;-65
2021/11/08 12:08:38;;;;;;;6.22;3.17;;;;;;;-144.43;100.00;64487.81;5012187;28;20429;-67
2021/11/08 12:11:04;;;;;;;8.77;3.42;;;;;;;-144.43;100.00;64487.81;5028079;28;20132;-66
2021/11/08 12:13:30;;;;;;;6.18;2.95;;;;;;;-144.43;100.00;64487.81;5028553;28;20034;-67
2021/11/08 12:16:09;;;;;;;12.00;3.17;;;;;;;-144.43;100.00;64487.81;5028061;28;20125;-66
2021/11/08 12:18:34;;;;;;;8.65;3.25;;;;;;;-144.43;100.00;64487.81;5013188;28;20046;-68
2021/11/08 12:21:03;;;;;;;6.25;2.95;;;;;;;-144.43;100.00;64487.81;4984332;28;20515;-67
2021/11/08 12:23:30;;;;;;;9.90;3.00;;;;;;;-144.43;100.00;64487.81;5011729;28;20267;-67
2021/11/08 12:25:56;;;;;;;7.57;2.88;;;;;;;-144.43;100.00;64487.81;4990872;28;20032;-67
2021/11/08 12:28:26;;;;;;;6.82;3.10;;;;;;;-144.43;100.00;64487.81;5010777;28;20030;-67
2021/11/08 12:30:55;;;;;;;7.10;3.45;;;;;;;-144.43;100.00;64487.81;5004141;28;20064;-66
2021/11/08 12:33:35;;;;;;;6.80;3.03;;;;;;;-144.43;100.00;64487.81;4998244;28;20029;-66
2021/11/08 12:36:18;;;;;;;10.85;3.63;;;;;;;-144.43;100.00;64487.81;5007206;28;20046;-66
2021/11/08 12:38:52;;;;;;;6.60;3.22;;;;;;;-144.43;100.00;64487.81;5007747;28;20105;-66
2021/11/08 12:41:44;;;;;;;5.78;2.95;;;;;;;-144.43;100.00;64487.81;5008454;28;20024;-67
2021/11/08 12:44:10;;;;;;;5.40;2.92;;;;;;;-144.43;100.00;64487.81;5000538;28;20037;-66
2021/11/08 12:46:57;;;;;;;5.75;3.00;;;;;;;-144.43;100.00;64487.81;5006990;28;20029;-66
2021/11/08 12:49:33;;;;;;;11.05;3.17;;;;;;;-144.43;100.00;64487.81;5006581;28;20041;-66
2021/11/08 12:52:06;;;;;;;8.52;3.40;;;;;;;-144.43;100.00;64487.81;5010540;28;20393;-67
2021/11/08 12:54:48;;;;;;;10.38;3.50;;;;;;;-144.43;100.00;64487.81;5010010;28;20489;-66
2021/11/08 12:57:14;;;;;;;5.75;2.80;;;;;;;-144.43;100.00;64487.81;5011130;28;20033;-66
2021/11/08 12:59:48;;;;;;;6.38;3.30;;;;;;;-144.43;100.00;64487.81;5010416;28;20129;-66
2021/11/08 13:02:50;;;;;;;6.60;2.90;;;;;;;-144.43;100.00;64487.81;5018274;28;20022;-66
2021/11/08 13:05:25;;;;;;;7.00;2.85;;;;;;;-144.43;100.00;64487.81;5012591;28;20068;-66
2021/11/08 13:07:50;;;;;;;7.72;3.03;;;;;;;-144.43;100.00;64487.81;4991510;28;20026;-65